createdAt,value
2022-12-03T00:00:48.057Z,101464.28
2022-12-03T00:03:16.140Z,101466.03
2022-12-03T00:05:48.814Z,101464.34
2022-12-03T00:08:17.171Z,101465.19
2022-12-03T00:10:44.783Z,101452.25
2022-12-03T00:13:12.336Z,101463.50
2022-12-03T00:15:40.162Z,101457.47
2022-12-03T00:18:07.936Z,101460.06
2022-12-03T00:20:35.595Z,101469.59
2022-12-03T00:23:03.402Z,101466.06
2022-12-03T00:25:31.092Z,101482.47
2022-12-03T00:27:58.926Z,101491.91
2022-12-03T00:30:26.786Z,101488.41
2022-12-03T00:32:54.276Z,101497.87
2022-12-03T00:35:21.797Z,101490.91
2022-12-03T00:37:49.854Z,101504.75
2022-12-03T00:40:17.424Z,101507.34
2022-12-03T00:42:44.929Z,101497.84
2022-12-03T00:45:12.906Z,101507.31
2022-12-03T00:47:40.566Z,101508.94
2022-12-03T00:50:08.555Z,101509.75
2022-12-03T00:52:36.304Z,101502.00
2022-12-03T00:55:04.372Z,101503.75
2022-12-03T00:57:31.905Z,101514.13
2022-12-03T00:59:59.713Z,101502.09
2022-12-03T01:02:27.286Z,101496.03
2022-12-03T01:04:55.199Z,101494.22
2022-12-03T01:07:23.297Z,101503.63
2022-12-03T01:09:51.168Z,101511.41
2022-12-03T01:12:18.849Z,101509.66
2022-12-03T01:14:47.119Z,101508.72
2022-12-03T01:17:14.646Z,101498.31
2022-12-03T01:19:48.235Z,101514.75
2022-12-03T01:22:16.659Z,101510.41
2022-12-03T01:24:44.256Z,101507.84
2022-12-03T01:27:11.828Z,101513.09
2022-12-03T01:29:39.717Z,101513.12
2022-12-03T01:32:19.868Z,101514.91
2022-12-03T01:34:53.101Z,101498.53
2022-12-03T01:37:23.003Z,101502.88
2022-12-03T01:39:51.117Z,101490.75
2022-12-03T01:42:25.225Z,101498.63
2022-12-03T01:44:55.161Z,101508.06
2022-12-03T01:47:27.807Z,101498.53
2022-12-03T01:50:02.033Z,101506.38
2022-12-03T01:52:32.657Z,101503.78
2022-12-03T01:55:03.339Z,101492.59
2022-12-03T01:57:37.089Z,101502.84
2022-12-03T02:00:05.787Z,101503.47
2022-12-03T02:02:33.481Z,101509.41
2022-12-03T02:05:01.756Z,101502.31
2022-12-03T02:07:35.466Z,101501.53
2022-12-03T02:10:04.693Z,101500.50
2022-12-03T02:12:38.640Z,101492.78
2022-12-03T02:15:07.207Z,101498.78
2022-12-03T02:17:35.081Z,101498.88
2022-12-03T02:20:05.262Z,101502.22
2022-12-03T02:22:44.017Z,101491.78
2022-12-03T02:25:29.427Z,101498.59
2022-12-03T02:27:57.000Z,101501.22
2022-12-03T02:30:26.755Z,101497.81
2022-12-03T02:32:54.744Z,101500.41
2022-12-03T02:35:27.194Z,101500.63
2022-12-03T02:38:09.660Z,101503.12
2022-12-03T02:40:37.336Z,101495.13
2022-12-03T02:43:05.468Z,101503.12
2022-12-03T02:45:41.781Z,101511.81
2022-12-03T02:48:19.219Z,101503.25
2022-12-03T02:50:55.563Z,101505.03
2022-12-03T02:53:27.482Z,101496.47
2022-12-03T02:55:58.311Z,101502.59
2022-12-03T02:58:27.584Z,101496.56
2022-12-03T03:00:55.895Z,101502.69
2022-12-03T03:03:25.043Z,101500.16
2022-12-03T03:05:53.916Z,101508.88
2022-12-03T03:08:21.772Z,101492.47
2022-12-03T03:10:50.003Z,101493.38
2022-12-03T03:13:20.839Z,101493.41
2022-12-03T03:15:48.585Z,101501.22
2022-12-03T03:18:16.785Z,101503.84
2022-12-03T03:20:45.375Z,101504.72
2022-12-03T03:23:12.770Z,101500.41
2022-12-03T03:25:43.175Z,101500.34
2022-12-03T03:28:12.094Z,101504.63
2022-12-03T03:30:41.359Z,101502.13
2022-12-03T03:33:09.254Z,101510.81
2022-12-03T03:35:37.338Z,101509.13
2022-12-03T03:38:05.860Z,101509.13
2022-12-03T03:44:24.767Z,101507.47
2022-12-03T03:46:52.644Z,101513.47
2022-12-03T03:49:20.511Z,101516.94
2022-12-03T03:51:48.177Z,101505.72
2022-12-03T03:54:16.115Z,101507.47
2022-12-03T03:56:43.691Z,101502.28
2022-12-03T03:59:13.278Z,101507.47
2022-12-03T04:01:41.724Z,101497.06
2022-12-03T04:04:17.409Z,101504.87
2022-12-03T04:06:45.033Z,101503.12
2022-12-03T04:09:12.873Z,101508.31
2022-12-03T04:11:58.596Z,101514.31
2022-12-03T04:14:26.391Z,101502.22
2022-12-03T04:16:54.083Z,101491.81
2022-12-03T04:19:21.715Z,101504.81
2022-12-03T04:22:07.961Z,101502.28
2022-12-03T04:24:35.553Z,101498.75
2022-12-03T04:27:22.209Z,101508.25
2022-12-03T04:29:49.815Z,101504.81
2022-12-03T04:32:35.892Z,101490.00
2022-12-03T04:35:22.418Z,101502.19
2022-12-03T04:37:50.339Z,101504.81
2022-12-03T04:40:38.695Z,101503.94
2022-12-03T04:43:06.587Z,101491.84
2022-12-03T04:45:34.169Z,101500.53
2022-12-03T04:48:01.827Z,101488.41
2022-12-03T04:50:29.814Z,101494.50
2022-12-03T04:52:57.438Z,101501.41
2022-12-03T04:55:24.956Z,101510.88
2022-12-03T04:57:53.254Z,101512.63
2022-12-03T05:00:21.019Z,101499.66
2022-12-03T05:02:48.688Z,101501.41
2022-12-03T05:05:16.743Z,101500.53
2022-12-03T05:07:44.307Z,101510.88
2022-12-03T05:10:12.605Z,101513.44
2022-12-03T05:12:40.443Z,101511.72
2022-12-03T05:15:08.233Z,101516.00
2022-12-03T05:17:35.781Z,101516.00
2022-12-03T05:20:22.598Z,101513.41
2022-12-03T05:22:50.135Z,101510.00
2022-12-03T05:25:17.973Z,101523.78
2022-12-03T05:27:45.547Z,101526.34
2022-12-03T05:30:13.418Z,101519.44
2022-12-03T05:32:41.264Z,101523.78
2022-12-03T05:35:09.888Z,101509.13
2022-12-03T05:37:37.685Z,101508.22
2022-12-03T05:40:06.190Z,101506.50
2022-12-03T05:42:52.271Z,101517.59
2022-12-03T05:45:27.851Z,101526.28
2022-12-03T05:47:56.181Z,101510.75
2022-12-03T05:50:25.906Z,101517.69
2022-12-03T05:52:55.980Z,101520.31
2022-12-03T05:55:23.811Z,101533.28
2022-12-03T05:57:51.309Z,101529.81
2022-12-03T06:00:21.730Z,101528.94
2022-12-03T06:02:49.874Z,101528.09
2022-12-03T06:05:19.593Z,101517.69
2022-12-03T06:07:48.803Z,101526.13
2022-12-03T06:10:22.092Z,101535.44
2022-12-03T06:12:49.780Z,101528.59
2022-12-03T06:15:18.347Z,101538.75
2022-12-03T06:17:45.991Z,101535.41
2022-12-03T06:20:18.677Z,101533.84
2022-12-03T06:22:47.196Z,101532.97
2022-12-03T06:25:15.190Z,101533.03
2022-12-03T06:27:43.000Z,101534.84
2022-12-03T06:30:11.889Z,101534.78
2022-12-03T06:32:39.480Z,101532.22
2022-12-03T06:35:07.323Z,101545.91
2022-12-03T06:37:35.079Z,101535.53
2022-12-03T06:40:02.637Z,101546.03
2022-12-03T06:42:30.281Z,101541.78
2022-12-03T06:44:58.106Z,101530.50
2022-12-03T06:47:25.658Z,101538.31
2022-12-03T06:49:53.348Z,101551.28
2022-12-03T06:52:21.133Z,101553.97
2022-12-03T06:54:48.665Z,101544.47
2022-12-03T06:57:16.388Z,101536.69
2022-12-03T06:59:44.203Z,101537.56
2022-12-03T07:02:12.861Z,101550.59
2022-12-03T07:04:45.940Z,101543.69
2022-12-03T07:07:14.711Z,101541.97
2022-12-03T07:09:42.445Z,101545.50
2022-12-03T07:12:10.402Z,101555.00
2022-12-03T07:14:38.435Z,101561.81
2022-12-03T07:17:06.062Z,101552.34
2022-12-03T07:19:33.745Z,101553.84
2022-12-03T07:22:01.701Z,101546.22
2022-12-03T07:24:29.246Z,101557.53
2022-12-03T07:26:56.780Z,101552.22
2022-12-03T07:29:24.522Z,101560.09
2022-12-03T07:31:52.285Z,101551.56
2022-12-03T07:34:19.998Z,101561.06
2022-12-03T07:36:47.862Z,101549.00
2022-12-03T07:39:15.642Z,101556.88
2022-12-03T07:41:43.225Z,101553.47
2022-12-03T07:44:14.690Z,101558.69
2022-12-03T07:46:42.732Z,101544.84
2022-12-03T07:49:12.202Z,101554.41
2022-12-03T07:51:40.426Z,101555.34
2022-12-03T07:54:08.002Z,101551.87
2022-12-03T07:56:35.629Z,101542.37
2022-12-03T07:59:03.719Z,101543.25
2022-12-03T08:01:31.413Z,101556.25
2022-12-03T08:03:59.818Z,101566.63
2022-12-03T08:06:27.301Z,101564.91
2022-12-03T08:08:56.996Z,101564.06
2022-12-03T08:11:24.814Z,101561.50
2022-12-03T08:13:52.462Z,101561.47
2022-12-03T08:16:22.458Z,101553.72
2022-12-03T08:18:51.233Z,101546.78
2022-12-03T08:21:20.249Z,101547.62
2022-12-03T08:23:48.201Z,101548.53
2022-12-03T08:26:19.630Z,101540.69
2022-12-03T08:28:47.280Z,101551.13
2022-12-03T08:31:19.898Z,101552.84
2022-12-03T08:33:49.659Z,101543.34
2022-12-03T08:36:25.658Z,101540.72
2022-12-03T08:38:59.566Z,101541.59
2022-12-03T08:41:45.616Z,101556.34
2022-12-03T08:44:16.470Z,101553.75
2022-12-03T08:46:45.000Z,101546.84
2022-12-03T08:49:14.329Z,101545.97
2022-12-03T08:51:41.830Z,101543.41
2022-12-03T08:54:13.596Z,101543.41
2022-12-03T08:56:41.599Z,101549.47
2022-12-03T08:59:27.022Z,101547.75
2022-12-03T09:01:56.082Z,101548.63
2022-12-03T09:04:39.365Z,101545.16
2022-12-03T09:07:07.269Z,101552.09
2022-12-03T09:09:35.083Z,101546.03
2022-12-03T09:12:04.443Z,101547.75
2022-12-03T09:14:32.324Z,101548.63
2022-12-03T09:16:59.975Z,101546.03
2022-12-03T09:19:30.938Z,101549.47
2022-12-03T09:21:58.910Z,101544.28
2022-12-03T09:24:27.196Z,101545.16
2022-12-03T09:26:54.768Z,101534.78
2022-12-03T09:29:23.025Z,101547.75
2022-12-03T09:31:50.644Z,101544.28
2022-12-03T09:34:18.308Z,101535.59
2022-12-03T09:36:46.057Z,101546.00
2022-12-03T09:39:13.789Z,101548.59
2022-12-03T09:41:43.386Z,101554.63
2022-12-03T09:44:17.485Z,101540.78
2022-12-03T09:46:46.279Z,101541.63
2022-12-03T09:49:16.432Z,101539.88
2022-12-03T09:51:44.540Z,101534.66
2022-12-03T09:54:25.039Z,101525.13
2022-12-03T09:56:54.249Z,101534.63
2022-12-03T09:59:23.306Z,101529.41
2022-12-03T10:01:52.546Z,101525.91
2022-12-03T10:04:20.528Z,101519.81
2022-12-03T10:06:48.225Z,101518.94
2022-12-03T10:13:02.309Z,101515.37
2022-12-03T10:15:30.275Z,101503.19
2022-12-03T10:17:58.020Z,101497.91
2022-12-03T10:20:26.182Z,101498.78
2022-12-03T10:22:54.002Z,101490.06
2022-12-03T10:25:22.804Z,101488.28
2022-12-03T10:27:59.263Z,101487.34
2022-12-03T10:30:28.836Z,101487.34
2022-12-03T10:32:58.114Z,101486.38
2022-12-03T10:35:27.238Z,101482.00
2022-12-03T10:38:08.300Z,101481.09
2022-12-03T10:40:39.446Z,101479.28
2022-12-03T10:43:13.461Z,101470.56
2022-12-03T10:45:42.009Z,101473.13
2022-12-03T10:48:21.516Z,101470.44
2022-12-03T10:50:57.511Z,101473.91
2022-12-03T10:53:30.699Z,101466.88
2022-12-03T10:55:59.952Z,101466.84
2022-12-03T10:58:29.861Z,101468.50
2022-12-03T11:01:01.037Z,101456.31
2022-12-03T11:03:34.109Z,101464.88
2022-12-03T11:06:03.208Z,101451.88
2022-12-03T11:08:34.551Z,101449.19
2022-12-03T11:11:29.632Z,101450.84
2022-12-03T11:14:02.289Z,101450.78
2022-12-03T11:16:42.111Z,101447.28
2022-12-03T11:19:12.871Z,101436.78
2022-12-03T11:22:05.911Z,101437.63
2022-12-03T11:24:35.674Z,101437.56
2022-12-03T11:27:03.290Z,101437.53
2022-12-03T11:29:56.191Z,101438.31
2022-12-03T11:32:39.024Z,101437.41
2022-12-03T11:35:15.348Z,101428.62
2022-12-03T11:37:43.112Z,101421.62
2022-12-03T11:40:16.469Z,101417.22
2022-12-03T11:42:46.405Z,101423.28
2022-12-03T11:45:17.958Z,101414.53
2022-12-03T11:47:49.070Z,101427.50
2022-12-03T11:50:24.361Z,101427.44
2022-12-03T11:53:23.536Z,101421.25
2022-12-03T11:56:04.180Z,101418.59
2022-12-03T11:58:33.284Z,101409.84
2022-12-03T12:01:02.746Z,101417.69
2022-12-03T12:03:36.471Z,101410.59
2022-12-03T12:06:07.907Z,101407.13
2022-12-03T12:08:38.362Z,101411.41
2022-12-03T12:11:31.056Z,101406.06
2022-12-03T12:14:06.847Z,101399.09
2022-12-03T12:16:41.330Z,101403.37
2022-12-03T12:19:28.863Z,101400.75
2022-12-03T12:21:56.981Z,101409.38
2022-12-03T12:24:31.132Z,101399.75
2022-12-03T12:27:15.580Z,101392.72
2022-12-03T12:29:48.014Z,101395.25
2022-12-03T12:32:17.948Z,101390.88
2022-12-03T12:34:48.567Z,101391.72
2022-12-03T12:37:33.005Z,101384.75
2022-12-03T12:40:04.376Z,101383.88
2022-12-03T12:42:37.062Z,101385.66
2022-12-03T12:45:07.810Z,101389.16
2022-12-03T12:47:36.436Z,101383.09
2022-12-03T12:50:11.235Z,101387.38
2022-12-03T12:52:54.580Z,101381.25
2022-12-03T12:55:23.385Z,101377.75
2022-12-03T12:57:51.575Z,101375.16
2022-12-03T13:00:22.220Z,101368.16
2022-12-03T13:02:58.884Z,101370.81
2022-12-03T13:05:46.672Z,101368.16
2022-12-03T13:08:29.184Z,101369.03
2022-12-03T13:10:59.160Z,101367.31
2022-12-03T13:13:43.594Z,101378.63
2022-12-03T13:16:20.645Z,101371.72
2022-12-03T13:18:56.955Z,101374.34
2022-12-03T13:21:41.470Z,101377.03
2022-12-03T13:24:42.742Z,101366.59
2022-12-03T13:27:30.922Z,101362.28
2022-12-03T13:30:02.337Z,101360.53
2022-12-03T13:32:38.908Z,101366.66
2022-12-03T13:35:07.845Z,101366.69
2022-12-03T13:37:37.131Z,101370.19
2022-12-03T13:40:35.098Z,101363.22
2022-12-03T13:43:32.369Z,101358.06
2022-12-03T13:46:00.276Z,101365.03
2022-12-03T13:48:32.317Z,101358.94
2022-12-03T13:51:02.424Z,101358.09
2022-12-03T13:53:36.457Z,101359.94
2022-12-03T13:56:30.717Z,101366.06
2022-12-03T13:59:00.440Z,101365.19
2022-12-03T14:01:28.749Z,101367.00
2022-12-03T14:03:56.981Z,101367.84
2022-12-03T14:06:24.461Z,101360.09
2022-12-03T14:08:52.009Z,101360.97
2022-12-03T14:11:38.407Z,101358.41
2022-12-03T14:14:06.144Z,101368.87
2022-12-03T14:16:34.020Z,101367.16
2022-12-03T14:19:01.727Z,101362.87
2022-12-03T14:21:29.529Z,101377.72
2022-12-03T14:23:57.324Z,101377.75
2022-12-03T14:26:24.895Z,101376.13
2022-12-03T14:28:52.411Z,101391.78
2022-12-03T14:31:20.465Z,101394.47
2022-12-03T14:33:48.065Z,101382.37
2022-12-03T14:36:15.550Z,101394.56
2022-12-03T14:38:43.341Z,101391.12
2022-12-03T14:41:30.851Z,101391.19
2022-12-03T14:43:58.680Z,101389.47
2022-12-03T14:46:26.333Z,101391.25
2022-12-03T14:48:54.603Z,101398.25
2022-12-03T14:51:22.391Z,101392.22
2022-12-03T14:53:50.056Z,101392.28
2022-12-03T14:56:19.523Z,101388.00
2022-12-03T14:58:47.667Z,101389.78
2022-12-03T15:01:15.336Z,101391.56
2022-12-03T15:03:42.846Z,101402.91
2022-12-03T15:06:10.674Z,101395.12
2022-12-03T15:08:38.276Z,101387.38
2022-12-03T15:11:06.336Z,101401.34
2022-12-03T15:13:34.150Z,101399.59
2022-12-03T15:16:01.709Z,101398.81
2022-12-03T15:18:31.096Z,101407.59
2022-12-03T15:20:58.886Z,101394.69
2022-12-03T15:23:26.502Z,101401.69
2022-12-03T15:25:54.027Z,101403.47
2022-12-03T15:28:23.145Z,101404.44
2022-12-03T15:30:50.985Z,101403.66
2022-12-03T15:33:18.629Z,101402.87
2022-12-03T15:35:46.546Z,101410.75
2022-12-03T15:38:16.061Z,101415.19
2022-12-03T15:40:43.943Z,101422.22
2022-12-03T15:43:12.356Z,101418.78
2022-12-03T15:45:40.362Z,101411.00
2022-12-03T15:48:08.005Z,101413.59
2022-12-03T15:50:40.092Z,101404.97
2022-12-03T15:53:07.949Z,101418.88
2022-12-03T15:55:35.895Z,101424.13
2022-12-03T15:58:03.673Z,101421.53
2022-12-03T16:00:31.356Z,101421.53
2022-12-03T16:02:59.611Z,101425.81
2022-12-03T16:05:27.761Z,101417.13
2022-12-03T16:07:55.602Z,101424.06
2022-12-03T16:10:24.279Z,101416.25
2022-12-03T16:12:51.819Z,101419.69
2022-12-03T16:15:23.684Z,101419.69
2022-12-03T16:17:55.170Z,101414.50
2022-12-03T16:20:23.938Z,101421.50
2022-12-03T16:22:52.073Z,101417.13
2022-12-03T16:25:19.897Z,101424.97
2022-12-03T16:27:47.617Z,101419.78
2022-12-03T16:30:15.470Z,101416.31
2022-12-03T16:32:43.326Z,101411.97
2022-12-03T16:35:10.873Z,101405.06
2022-12-03T16:37:38.540Z,101406.75
2022-12-03T16:40:07.367Z,101406.75
2022-12-03T16:42:37.026Z,101418.91
2022-12-03T16:45:08.933Z,101409.38
2022-12-03T16:47:37.166Z,101411.97
2022-12-03T16:50:07.796Z,101404.22
2022-12-03T16:52:35.831Z,101412.94
2022-12-03T16:55:03.972Z,101416.41
2022-12-03T16:57:33.897Z,101419.13
2022-12-03T17:00:01.735Z,101420.00
2022-12-03T17:02:29.799Z,101415.69
2022-12-03T17:04:57.402Z,101408.78
2022-12-03T17:07:24.978Z,101414.00
2022-12-03T17:09:53.374Z,101414.88
2022-12-03T17:12:21.076Z,101414.91
2022-12-03T17:14:48.718Z,101413.16
2022-12-03T17:17:18.623Z,101406.22
2022-12-03T17:19:46.377Z,101411.41
2022-12-03T17:22:14.283Z,101407.13
2022-12-03T17:24:44.042Z,101409.66
2022-12-03T17:27:12.912Z,101401.88
2022-12-03T17:29:40.518Z,101405.38
2022-12-03T17:32:08.481Z,101411.44
2022-12-03T17:34:36.145Z,101411.47
2022-12-03T17:37:03.794Z,101418.50
2022-12-03T17:39:31.667Z,101419.38
2022-12-03T17:41:59.396Z,101416.78
2022-12-03T17:44:27.031Z,101409.81
2022-12-03T17:46:55.085Z,101413.31
2022-12-03T17:49:25.711Z,101411.62
2022-12-03T17:51:57.758Z,101418.53
2022-12-03T17:54:38.012Z,101423.75
2022-12-03T17:57:13.085Z,101423.75
2022-12-03T17:59:42.029Z,101417.72
2022-12-03T18:02:09.678Z,101422.94
2022-12-03T18:04:37.637Z,101415.12
2022-12-03T18:07:05.146Z,101416.84
2022-12-03T18:09:32.710Z,101405.63
2022-12-03T18:12:00.585Z,101411.66
2022-12-03T18:14:28.368Z,101418.62
2022-12-03T18:16:56.259Z,101423.84
2022-12-03T18:19:26.519Z,101415.19
2022-12-03T18:21:54.980Z,101413.50
2022-12-03T18:24:22.802Z,101415.19
2022-12-03T18:26:50.775Z,101414.34
2022-12-03T18:29:18.559Z,101411.75
2022-12-03T18:31:46.494Z,101404.81
2022-12-03T18:34:14.895Z,101408.22
2022-12-03T18:36:42.785Z,101408.25
2022-12-03T18:39:18.842Z,101410.81
2022-12-03T18:41:46.622Z,101409.97
2022-12-03T18:44:14.529Z,101404.75
2022-12-03T18:46:53.356Z,101411.69
2022-12-03T18:49:21.984Z,101410.84
2022-12-03T18:51:53.277Z,101416.94
2022-12-03T18:54:25.741Z,101408.28
2022-12-03T18:56:53.304Z,101412.63
2022-12-03T18:59:21.374Z,101413.47
2022-12-03T19:01:50.211Z,101417.84
2022-12-03T19:04:17.866Z,101410.06
2022-12-03T19:06:45.521Z,101415.22
2022-12-03T19:09:13.520Z,101405.72
2022-12-03T19:11:41.418Z,101407.44
2022-12-03T19:14:11.168Z,101416.13
2022-12-03T19:16:40.429Z,101417.00
2022-12-03T19:19:09.497Z,101429.97
2022-12-03T19:21:37.649Z,101414.41
2022-12-03T19:26:55.561Z,101422.19
2022-12-03T19:29:24.517Z,101420.47
2022-12-03T19:31:52.586Z,101417.00
2022-12-03T19:34:20.729Z,101419.59
2022-12-03T19:36:48.654Z,101422.19
2022-12-03T19:39:16.601Z,101418.72
2022-12-03T19:41:44.775Z,101421.31
2022-12-03T19:44:14.635Z,101416.13
2022-12-03T19:46:43.407Z,101424.78
2022-12-03T19:49:11.430Z,101420.44
2022-12-03T19:51:39.364Z,101423.03
2022-12-03T19:54:10.122Z,101422.16
2022-12-03T19:56:37.882Z,101424.75
2022-12-03T19:59:06.360Z,101417.00
2022-12-03T20:01:35.957Z,101419.56
2022-12-03T20:04:04.356Z,101424.75
2022-12-03T20:06:34.333Z,101423.00
2022-12-03T20:09:06.371Z,101413.47
2022-12-03T20:11:35.141Z,101420.44
2022-12-03T20:14:07.083Z,101410.91
2022-12-03T20:16:35.796Z,101418.69
2022-12-03T20:19:06.371Z,101417.81
2022-12-03T20:21:36.455Z,101416.94
2022-12-03T20:24:05.560Z,101415.25
2022-12-03T20:26:34.540Z,101422.16
2022-12-03T20:29:02.506Z,101416.94
2022-12-03T20:31:31.655Z,101414.38
2022-12-03T20:34:01.327Z,101413.50
2022-12-03T20:36:30.241Z,101416.09
2022-12-03T20:39:01.119Z,101417.84
2022-12-03T20:41:29.146Z,101416.97
2022-12-03T20:43:56.988Z,101415.25
2022-12-03T20:46:30.448Z,101415.25
2022-12-03T20:48:58.983Z,101411.78
2022-12-03T20:51:29.749Z,101412.66
2022-12-03T20:54:00.039Z,101412.63
2022-12-03T20:56:32.547Z,101407.44
2022-12-03T20:59:01.907Z,101418.69
2022-12-03T21:01:30.136Z,101418.72
2022-12-03T21:03:57.972Z,101423.06
2022-12-03T21:06:27.037Z,101427.38
2022-12-03T21:08:56.158Z,101430.00
2022-12-03T21:11:26.355Z,101429.97
2022-12-03T21:13:55.520Z,101431.72
2022-12-03T21:16:52.037Z,101435.19
2022-12-03T21:19:13.681Z,101436.91
2022-12-03T21:21:41.818Z,101443.00
2022-12-03T21:24:11.431Z,101432.59
2022-12-03T21:26:39.681Z,101436.03
2022-12-03T21:29:07.783Z,101432.59
2022-12-03T21:31:37.320Z,101437.78
2022-12-03T21:34:05.379Z,101442.97
2022-12-03T21:36:33.203Z,101436.03
2022-12-03T21:39:00.774Z,101446.44
2022-12-03T21:41:28.645Z,101447.31
2022-12-03T21:43:56.928Z,101454.22
2022-12-03T21:47:09.264Z,101450.75
2022-12-03T21:49:12.414Z,101455.09
2022-12-03T21:51:40.187Z,101448.19
2022-12-03T21:54:07.799Z,101447.28
2022-12-03T21:56:35.916Z,101449.91
2022-12-03T21:59:04.406Z,101435.19
2022-12-03T22:01:32.037Z,101442.09
2022-12-03T22:04:05.098Z,101436.91
2022-12-03T22:06:32.627Z,101443.81
2022-12-03T22:09:00.571Z,101440.37
2022-12-03T22:11:28.130Z,101426.50
2022-12-03T22:13:57.145Z,101430.84
2022-12-03T22:16:25.085Z,101432.59
2022-12-03T22:18:54.209Z,101429.97
2022-12-03T22:21:21.901Z,101436.91
2022-12-03T22:23:49.781Z,101423.09
2022-12-03T22:26:19.055Z,101421.31
2022-12-03T22:28:48.493Z,101419.59
2022-12-03T22:31:17.818Z,101427.38
2022-12-03T22:33:48.498Z,101423.09
2022-12-03T22:36:21.367Z,101420.47
2022-12-03T22:38:50.364Z,101412.69
2022-12-03T22:41:18.851Z,101412.69
2022-12-03T22:43:47.390Z,101402.28
2022-12-03T22:46:15.614Z,101412.69
2022-12-03T22:48:45.525Z,101418.75
2022-12-03T22:51:15.996Z,101408.34
2022-12-03T22:53:43.886Z,101407.47
2022-12-03T22:56:12.246Z,101401.44
2022-12-03T22:58:40.585Z,101400.56
2022-12-03T23:01:08.707Z,101407.50
2022-12-03T23:03:36.908Z,101399.69
2022-12-03T23:06:12.356Z,101397.09
2022-12-03T23:08:40.846Z,101391.03
2022-12-03T23:11:08.963Z,101386.72
2022-12-03T23:13:36.919Z,101383.22
2022-12-03T23:16:05.238Z,101391.03
2022-12-03T23:18:33.205Z,101395.38
2022-12-03T23:21:01.359Z,101391.91
2022-12-03T23:23:29.174Z,101393.63
2022-12-03T23:26:07.998Z,101402.28
2022-12-03T23:28:38.072Z,101393.66
2022-12-03T23:31:06.693Z,101392.78
2022-12-03T23:33:38.430Z,101393.66
2022-12-03T23:36:07.250Z,101390.19
2022-12-03T23:38:34.769Z,101396.25
2022-12-03T23:41:11.397Z,101397.09
2022-12-03T23:43:39.560Z,101387.59
2022-12-03T23:46:13.149Z,101370.28
2022-12-03T23:48:42.412Z,101390.19
2022-12-03T23:51:12.607Z,101399.69
2022-12-03T23:53:40.425Z,101393.66
2022-12-03T23:56:09.967Z,101384.09
2022-12-03T23:58:38.709Z,101380.66
